Time;durP1;ratioP1;P1;durP2;ratioP2;P2;SDS_P1;SDS_P2;PMS_P1;PMS_P2;Temp;Humidity;BMP_temperature;BMP_pressure;BME280_temperature;BME280_humidity;BME280_pressure;Samples;Min_cycle;Max_cycle;Signal;HPM_P1;HPM_P2
2020/12/28 00:02:04;;;;;;;12.90;7.93;;;2.20;66.90;;;;;;5036441;28;20029;-67
2020/12/28 00:04:30;;;;;;;11.90;7.70;;;2.20;66.70;;;;;;5036339;28;20037;-66
2020/12/28 00:06:56;;;;;;;12.67;7.87;;;2.30;66.80;;;;;;5036185;28;20029;-66
2020/12/28 00:09:22;;;;;;;13.37;8.57;;;2.30;66.60;;;;;;5036188;28;20034;-66
2020/12/28 00:11:56;;;;;;;12.93;8.00;;;2.30;66.20;;;;;;5035715;28;20029;-66
2020/12/28 00:14:22;;;;;;;13.17;8.07;;;2.30;65.80;;;;;;5036111;28;20482;-67
2020/12/28 00:16:48;;;;;;;14.80;7.90;;;2.30;65.60;;;;;;5036096;28;20076;-66
2020/12/28 00:19:14;;;;;;;12.77;7.90;;;2.30;66.50;;;;;;5036109;28;20025;-66
2020/12/28 00:21:41;;;;;;;11.77;7.50;;;2.30;66.00;;;;;;5036048;28;20528;-66
2020/12/28 00:24:06;;;;;;;12.30;7.43;;;2.30;65.80;;;;;;5036126;28;20393;-66
2020/12/28 00:26:50;;;;;;;11.40;7.70;;;2.20;66.00;;;;;;5035731;28;20026;-66
2020/12/28 00:29:16;;;;;;;10.60;6.97;;;2.20;65.80;;;;;;5035679;28;20029;-67
2020/12/28 00:31:42;;;;;;;11.43;6.83;;;2.30;66.00;;;;;;5035853;28;20022;-66
2020/12/28 00:34:09;;;;;;;13.57;7.70;;;2.20;65.80;;;;;;5035793;28;20465;-66
2020/12/28 00:36:34;;;;;;;11.70;7.37;;;2.20;65.60;;;;;;5035330;28;20112;-67
2020/12/28 00:39:00;;;;;;;12.93;7.70;;;2.20;65.80;;;;;;5035737;28;20470;-66
2020/12/28 00:41:26;;;;;;;12.83;8.30;;;2.30;66.20;;;;;;5035731;28;20104;-66
2020/12/28 00:43:52;;;;;;;11.67;7.63;;;2.30;66.50;;;;;;5035804;28;20033;-66
2020/12/28 00:46:17;;;;;;;13.37;7.63;;;2.30;66.70;;;;;;5034956;28;20021;-66
2020/12/28 00:48:43;;;;;;;11.23;7.43;;;2.30;67.80;;;;;;5035681;28;20030;-66
2020/12/28 00:51:13;;;;;;;11.67;6.63;;;2.30;67.40;;;;;;5035460;28;20362;-66
2020/12/28 00:53:39;;;;;;;10.83;7.40;;;2.30;68.00;;;;;;5035878;28;20025;-66
2020/12/28 00:56:05;;;;;;;12.83;7.63;;;2.30;68.10;;;;;;5035653;28;20354;-67
2020/12/28 00:58:34;;;;;;;10.13;7.17;;;2.30;67.10;;;;;;5035210;28;20028;-67
2020/12/28 01:01:00;;;;;;;13.13;7.57;;;2.30;67.30;;;;;;5035417;28;20026;-66
2020/12/28 01:03:25;;;;;;;12.70;7.97;;;2.30;66.80;;;;;;5035282;28;20040;-66
2020/12/28 01:05:51;;;;;;;11.83;7.80;;;2.30;67.80;;;;;;5035119;28;20026;-66
2020/12/28 01:08:17;;;;;;;12.93;8.43;;;2.30;67.40;;;;;;5034972;28;20060;-66
2020/12/28 01:10:43;;;;;;;16.03;9.10;;;2.30;67.80;;;;;;5035253;28;20045;-66
2020/12/28 01:13:09;;;;;;;15.30;9.27;;;2.30;67.90;;;;;;5035223;28;20018;-66
2020/12/28 01:15:35;;;;;;;15.10;8.80;;;2.30;67.90;;;;;;5035270;28;20026;-65
2020/12/28 01:18:01;;;;;;;14.33;9.13;;;2.40;67.70;;;;;;5035178;28;20029;-66
2020/12/28 01:20:27;;;;;;;16.83;9.23;;;2.40;67.90;;;;;;5035021;28;20033;-66
2020/12/28 01:22:52;;;;;;;15.63;8.90;;;2.40;68.10;;;;;;5035158;28;20040;-66
2020/12/28 01:25:18;;;;;;;15.70;8.73;;;2.40;68.10;;;;;;5034937;28;20034;-66
2020/12/28 01:27:43;;;;;;;15.97;8.83;;;2.40;68.40;;;;;;5034952;28;20534;-66
2020/12/28 01:30:09;;;;;;;13.93;8.27;;;2.40;68.30;;;;;;5035024;28;20037;-66
2020/12/28 01:32:35;;;;;;;16.70;8.43;;;2.30;68.70;;;;;;5034728;28;20477;-66
2020/12/28 01:35:00;;;;;;;12.50;8.00;;;2.40;68.60;;;;;;5034676;28;20033;-66
2020/12/28 01:37:26;;;;;;;13.43;7.43;;;2.40;68.80;;;;;;5034351;28;20054;-66
2020/12/28 01:39:52;;;;;;;12.73;7.87;;;2.40;68.50;;;;;;5034501;28;20092;-66
2020/12/28 01:42:18;;;;;;;13.03;7.93;;;2.40;67.90;;;;;;5034586;28;20028;-66
2020/12/28 01:44:44;;;;;;;10.40;7.33;;;2.50;67.70;;;;;;5034200;28;20042;-67
2020/12/28 01:47:10;;;;;;;11.43;7.87;;;2.50;67.40;;;;;;5034378;28;20459;-66
2020/12/28 01:49:35;;;;;;;10.07;6.33;;;2.50;67.10;;;;;;5034656;28;20033;-66
2020/12/28 01:52:02;;;;;;;14.07;7.73;;;2.50;67.30;;;;;;5034650;28;20366;-66
2020/12/28 01:54:29;;;;;;;12.53;7.70;;;2.50;67.40;;;;;;5034328;28;20017;-66
2020/12/28 01:56:57;;;;;;;13.83;7.97;;;2.50;67.40;;;;;;5034200;28;20053;-66
2020/12/28 01:59:24;;;;;;;13.23;8.40;;;2.50;67.10;;;;;;5031747;28;20049;-67
2020/12/28 02:01:52;;;;;;;12.40;8.30;;;2.50;67.50;;;;;;5031617;28;20082;-67
2020/12/28 02:04:19;;;;;;;12.33;8.00;;;2.50;67.60;;;;;;5032143;28;20417;-66
2020/12/28 02:06:45;;;;;;;10.93;7.27;;;2.60;67.90;;;;;;5033965;28;20452;-66
2020/12/28 02:09:11;;;;;;;9.43;6.93;;;2.60;67.20;;;;;;5034251;28;20030;-66
2020/12/28 02:11:36;;;;;;;17.73;11.40;;;2.50;67.70;;;;;;5033842;28;20053;-66
2020/12/28 02:14:02;;;;;;;20.80;12.00;;;2.50;67.40;;;;;;5033518;28;20029;-66
2020/12/28 02:16:28;;;;;;;21.47;11.67;;;2.40;67.50;;;;;;5033731;28;20025;-66
2020/12/28 02:19:00;;;;;;;19.43;11.80;;;2.40;69.00;;;;;;5070622;28;20752;-67
2020/12/28 02:21:27;;;;;;;20.70;11.67;;;2.40;69.20;;;;;;5070288;28;20021;-67
2020/12/28 02:23:53;;;;;;;18.77;11.63;;;2.40;69.10;;;;;;5070187;28;20571;-66
2020/12/28 02:26:18;;;;;;;18.90;12.10;;;2.40;69.80;;;;;;5070227;28;20100;-66
2020/12/28 02:28:44;;;;;;;17.73;11.83;;;2.30;70.30;;;;;;5069928;28;20021;-67
2020/12/28 02:31:10;;;;;;;23.33;12.23;;;2.30;69.80;;;;;;5070065;28;20075;-67
2020/12/28 02:33:40;;;;;;;21.43;12.50;;;2.30;70.40;;;;;;5070109;28;20021;-67
2020/12/28 02:36:08;;;;;;;20.63;11.73;;;2.30;70.60;;;;;;5069853;28;20107;-67
2020/12/28 02:38:35;;;;;;;21.40;11.83;;;2.30;70.50;;;;;;5069781;28;20044;-67
2020/12/28 02:41:02;;;;;;;17.90;11.10;;;2.30;71.60;;;;;;5070035;28;20357;-67
2020/12/28 02:43:27;;;;;;;16.90;9.83;;;2.30;71.30;;;;;;5069839;28;20024;-67
2020/12/28 02:45:55;;;;;;;16.90;9.77;;;2.30;70.50;;;;;;5069736;28;20055;-67
2020/12/28 02:48:21;;;;;;;16.80;10.53;;;2.30;70.40;;;;;;5069274;28;20027;-66
2020/12/28 02:50:47;;;;;;;16.80;10.63;;;2.30;69.60;;;;;;5069463;28;20025;-66
2020/12/28 02:53:13;;;;;;;18.40;10.33;;;2.30;69.10;;;;;;5069708;28;20039;-66
2020/12/28 02:55:38;;;;;;;17.73;11.23;;;2.30;69.80;;;;;;5069639;28;20444;-66
2020/12/28 02:58:04;;;;;;;18.20;10.43;;;2.30;70.50;;;;;;5069198;28;20032;-67
2020/12/28 03:00:30;;;;;;;20.07;10.80;;;2.30;70.40;;;;;;5069375;28;20028;-67
2020/12/28 03:02:55;;;;;;;16.97;10.53;;;2.30;71.00;;;;;;5069289;28;20075;-67
2020/12/28 03:05:21;;;;;;;19.37;11.13;;;2.30;71.10;;;;;;5069597;28;20058;-66
2020/12/28 03:07:47;;;;;;;16.67;9.77;;;2.30;72.00;;;;;;5069393;28;20452;-67
2020/12/28 03:10:12;;;;;;;15.83;9.23;;;2.30;72.10;;;;;;5069465;28;20082;-66
2020/12/28 03:12:38;;;;;;;12.83;8.87;;;2.30;72.00;;;;;;5069490;28;20103;-67
2020/12/28 03:15:04;;;;;;;15.47;9.17;;;2.30;72.90;;;;;;5069348;28;20025;-67
2020/12/28 03:17:29;;;;;;;14.13;8.93;;;2.30;72.90;;;;;;5068969;28;20080;-66
2020/12/28 03:19:55;;;;;;;13.03;9.07;;;2.30;73.20;;;;;;5069232;28;20047;-67
2020/12/28 03:22:21;;;;;;;13.13;8.33;;;2.40;74.10;;;;;;5069235;28;20056;-66
2020/12/28 03:24:46;;;;;;;16.40;8.27;;;2.40;74.20;;;;;;5068998;28;20029;-66
2020/12/28 03:27:12;;;;;;;11.77;8.23;;;2.40;74.90;;;;;;5068828;28;20113;-66
2020/12/28 03:29:38;;;;;;;19.03;8.80;;;2.40;75.30;;;;;;5059830;28;20037;-66
2020/12/28 03:32:04;;;;;;;14.57;8.20;;;2.40;75.60;;;;;;5055945;28;20402;-66
2020/12/28 03:34:29;;;;;;;12.13;7.77;;;2.40;75.70;;;;;;5055894;28;20029;-66
2020/12/28 03:36:55;;;;;;;14.83;9.07;;;2.40;75.80;;;;;;5055569;28;20420;-66
2020/12/28 03:39:21;;;;;;;13.67;8.23;;;2.40;77.10;;;;;;5055745;28;20032;-66
2020/12/28 03:41:46;;;;;;;13.00;8.90;;;2.50;77.60;;;;;;5055675;28;20481;-66
2020/12/28 03:44:12;;;;;;;16.37;8.30;;;2.50;78.80;;;;;;5055374;28;20467;-66
2020/12/28 03:46:38;;;;;;;13.93;8.90;;;2.50;79.00;;;;;;5055569;28;20013;-66
2020/12/28 03:49:04;;;;;;;12.33;8.17;;;2.40;79.20;;;;;;5055593;28;20075;-66
2020/12/28 03:51:29;;;;;;;11.40;8.23;;;2.40;79.10;;;;;;5055475;28;20021;-66
2020/12/28 03:53:55;;;;;;;12.53;8.70;;;2.40;79.40;;;;;;5055319;28;20033;-66
2020/12/28 03:56:21;;;;;;;10.80;7.70;;;2.40;79.90;;;;;;5055107;28;20017;-66
2020/12/28 03:58:47;;;;;;;12.40;8.83;;;2.40;79.90;;;;;;5055109;28;20033;-67
2020/12/28 04:01:13;;;;;;;9.90;7.37;;;2.40;80.50;;;;;;5055302;28;20485;-68
2020/12/28 04:03:38;;;;;;;11.57;8.10;;;2.40;80.20;;;;;;5055219;28;20025;-67
2020/12/28 04:06:04;;;;;;;12.20;8.40;;;2.40;80.50;;;;;;5055366;28;20018;-66
2020/12/28 04:08:31;;;;;;;12.60;8.77;;;2.40;81.00;;;;;;5055159;28;20071;-66
2020/12/28 04:10:57;;;;;;;11.27;8.50;;;2.40;81.00;;;;;;5055304;28;20048;-66
2020/12/28 04:13:23;;;;;;;13.87;8.67;;;2.40;81.80;;;;;;5055088;28;20025;-66
2020/12/28 04:15:49;;;;;;;13.83;8.80;;;2.40;82.10;;;;;;5055289;28;20539;-67
2020/12/28 04:18:14;;;;;;;10.67;7.90;;;2.40;82.40;;;;;;5054562;28;20084;-66
2020/12/28 04:20:40;;;;;;;12.87;8.70;;;2.40;82.50;;;;;;5054942;28;20553;-66
2020/12/28 04:23:06;;;;;;;13.70;8.60;;;2.50;82.60;;;;;;5054760;28;20096;-66
2020/12/28 04:25:31;;;;;;;12.07;8.37;;;2.50;82.50;;;;;;5054461;28;20108;-66
2020/12/28 04:27:57;;;;;;;14.73;10.00;;;2.50;82.20;;;;;;5054662;28;20029;-66
2020/12/28 04:30:23;;;;;;;14.90;10.53;;;2.50;81.50;;;;;;5054640;28;20103;-66
2020/12/28 04:32:48;;;;;;;15.10;10.30;;;2.40;80.60;;;;;;5054798;28;20056;-66
2020/12/28 04:35:14;;;;;;;16.00;11.40;;;2.50;79.60;;;;;;5054631;28;20021;-66
2020/12/28 04:37:40;;;;;;;14.77;10.83;;;2.50;79.30;;;;;;5054413;28;20029;-66
2020/12/28 04:40:06;;;;;;;15.17;11.03;;;2.40;80.60;;;;;;5053868;28;20074;-66
2020/12/28 04:42:31;;;;;;;16.00;11.33;;;2.30;81.20;;;;;;5054020;28;20043;-66
2020/12/28 04:44:57;;;;;;;14.47;10.90;;;2.40;80.90;;;;;;5054508;28;20430;-66
2020/12/28 04:47:24;;;;;;;16.43;10.73;;;2.30;82.60;;;;;;5054115;28;20097;-66
2020/12/28 04:49:51;;;;;;;18.23;12.00;;;2.20;82.80;;;;;;5054312;28;20036;-66
2020/12/28 04:52:17;;;;;;;14.40;10.13;;;2.20;83.50;;;;;;5054522;28;20035;-67
2020/12/28 04:54:46;;;;;;;15.67;11.10;;;2.10;83.50;;;;;;5054255;28;20036;-66
2020/12/28 04:57:12;;;;;;;14.03;10.60;;;2.10;83.60;;;;;;5054132;28;20040;-66
2020/12/28 04:59:38;;;;;;;14.70;10.27;;;2.10;82.90;;;;;;5054188;28;20441;-66
2020/12/28 05:02:06;;;;;;;14.07;10.00;;;2.00;83.10;;;;;;5053811;28;20095;-66
2020/12/28 05:04:32;;;;;;;14.60;10.27;;;2.10;83.90;;;;;;5054455;28;20033;-66
2020/12/28 05:06:58;;;;;;;15.07;10.10;;;2.00;83.50;;;;;;5053973;28;20036;-66
2020/12/28 05:09:24;;;;;;;15.07;10.47;;;2.10;83.80;;;;;;5053858;28;20535;-66
2020/12/28 05:11:55;;;;;;;15.77;10.53;;;2.00;84.90;;;;;;5053788;28;20036;-66
2020/12/28 05:14:21;;;;;;;15.27;10.17;;;2.10;84.90;;;;;;5053778;28;20035;-66
2020/12/28 05:16:47;;;;;;;15.07;9.83;;;2.10;85.10;;;;;;5053516;28;20025;-66
2020/12/28 05:19:13;;;;;;;13.20;9.13;;;2.10;85.40;;;;;;5053648;28;20072;-66
2020/12/28 05:21:42;;;;;;;15.23;10.67;;;2.10;85.00;;;;;;5053776;28;20543;-66
2020/12/28 05:24:14;;;;;;;15.20;10.53;;;2.10;84.40;;;;;;5053698;28;20033;-66
2020/12/28 05:26:42;;;;;;;14.00;9.82;;;2.00;85.50;;;;;;5053600;28;20470;-67
2020/12/28 05:29:29;;;;;;;14.90;10.10;;;2.10;85.60;;;;;;5053704;28;20044;-66
2020/12/28 05:31:56;;;;;;;15.13;10.50;;;2.10;85.60;;;;;;5053589;28;20032;-67
2020/12/28 05:34:27;;;;;;;16.93;10.47;;;2.10;85.60;;;;;;5053584;28;20068;-67
2020/12/28 05:36:54;;;;;;;14.80;10.87;;;2.10;85.70;;;;;;5053277;28;20029;-66
2020/12/28 05:39:23;;;;;;;14.93;10.10;;;2.10;86.40;;;;;;5053172;28;20120;-67
2020/12/28 05:41:56;;;;;;;13.33;9.47;;;2.20;85.90;;;;;;5053340;28;20437;-67
2020/12/28 05:44:26;;;;;;;13.53;9.47;;;2.20;85.90;;;;;;5053310;28;20032;-66
2020/12/28 05:47:09;;;;;;;12.17;8.87;;;2.20;85.00;;;;;;5053115;28;20396;-66
2020/12/28 05:49:42;;;;;;;13.70;9.32;;;2.10;85.30;;;;;;5053319;28;20052;-67
2020/12/28 05:52:10;;;;;;;12.10;8.67;;;2.10;85.40;;;;;;5052842;28;20028;-66
2020/12/28 05:54:37;;;;;;;11.30;8.73;;;2.20;85.60;;;;;;5053139;28;20074;-66
2020/12/28 05:57:04;;;;;;;12.77;8.73;;;2.20;85.10;;;;;;5052816;28;20045;-66
2020/12/28 05:59:31;;;;;;;12.37;8.47;;;2.10;86.00;;;;;;5053162;28;20021;-66
2020/12/28 06:01:58;;;;;;;11.47;8.50;;;2.20;86.30;;;;;;5053042;28;20025;-66
2020/12/28 06:04:24;;;;;;;12.30;8.80;;;2.20;86.10;;;;;;5052834;28;20032;-66
2020/12/28 06:06:59;;;;;;;14.33;10.80;;;2.20;85.80;;;;;;5053041;28;20021;-66
2020/12/28 06:09:26;;;;;;;17.03;10.60;;;2.20;86.00;;;;;;5052918;28;20021;-66
2020/12/28 06:12:11;;;;;;;16.03;10.57;;;2.20;85.60;;;;;;5052666;28;20056;-66
2020/12/28 06:14:39;;;;;;;14.13;9.83;;;2.20;86.00;;;;;;5052691;28;20065;-66
2020/12/28 06:17:07;;;;;;;14.63;10.13;;;2.30;86.70;;;;;;5052550;28;20162;-66
2020/12/28 06:19:33;;;;;;;15.60;9.47;;;2.20;86.40;;;;;;5052991;28;20405;-67
2020/12/28 06:21:59;;;;;;;11.47;8.23;;;2.20;86.90;;;;;;5052985;28;20028;-67
2020/12/28 06:24:32;;;;;;;13.57;8.57;;;2.20;87.00;;;;;;5052723;28;20032;-67
2020/12/28 06:27:01;;;;;;;10.90;7.60;;;2.20;86.10;;;;;;5052776;28;20049;-67
2020/12/28 06:29:27;;;;;;;9.90;6.93;;;2.20;86.20;;;;;;5052739;28;20025;-67
2020/12/28 06:31:53;;;;;;;9.80;7.17;;;2.20;85.40;;;;;;5052874;28;20031;-67
2020/12/28 06:34:20;;;;;;;9.57;7.17;;;2.20;85.70;;;;;;5052983;28;20036;-67
2020/12/28 06:36:45;;;;;;;9.80;6.90;;;2.20;86.20;;;;;;5052477;28;20094;-66
2020/12/28 06:39:12;;;;;;;9.97;6.40;;;2.20;86.50;;;;;;5052747;28;20108;-66
2020/12/28 06:41:38;;;;;;;8.40;6.43;;;2.20;86.50;;;;;;5052924;28;20427;-66
2020/12/28 06:44:04;;;;;;;9.63;6.97;;;2.20;86.10;;;;;;5052709;28;20048;-67
2020/12/28 06:46:30;;;;;;;10.53;7.37;;;2.20;86.20;;;;;;5052689;28;20067;-66
2020/12/28 06:48:58;;;;;;;11.03;7.87;;;2.20;87.00;;;;;;5052863;28;20017;-66
2020/12/28 06:51:25;;;;;;;11.47;8.03;;;2.20;87.10;;;;;;5052837;28;20381;-67
2020/12/28 06:53:57;;;;;;;9.73;7.20;;;2.30;86.90;;;;;;5052597;28;20040;-66
2020/12/28 06:56:26;;;;;;;11.13;7.07;;;2.30;86.60;;;;;;5052735;28;20059;-66
2020/12/28 06:58:59;;;;;;;9.97;7.33;;;2.30;86.60;;;;;;5052258;28;20037;-66
2020/12/28 07:01:25;;;;;;;13.30;7.32;;;2.30;86.60;;;;;;5052664;28;20029;-65
2020/12/28 07:03:54;;;;;;;12.20;8.43;;;2.30;87.40;;;;;;5054194;28;20033;-65
2020/12/28 07:06:20;;;;;;;13.57;8.03;;;2.30;86.80;;;;;;5056396;28;20036;-66
2020/12/28 07:08:47;;;;;;;10.70;7.63;;;2.30;87.00;;;;;;5056115;28;20036;-65
2020/12/28 07:11:18;;;;;;;12.00;7.70;;;2.30;87.00;;;;;;5056521;28;20033;-65
2020/12/28 07:13:47;;;;;;;12.97;7.60;;;2.40;87.10;;;;;;5056307;28;20032;-65
2020/12/28 07:16:13;;;;;;;11.10;8.10;;;2.40;87.00;;;;;;5055208;28;20484;-66
2020/12/28 07:18:39;;;;;;;13.07;7.40;;;2.40;87.00;;;;;;5055598;28;20081;-66
2020/12/28 07:21:06;;;;;;;10.73;7.20;;;2.40;87.20;;;;;;5055733;28;20378;-66
2020/12/28 07:23:33;;;;;;;12.57;7.77;;;2.40;86.70;;;;;;5053876;28;20032;-66
2020/12/28 07:26:09;;;;;;;13.20;9.10;;;2.40;86.50;;;;;;5054284;28;20055;-67
2020/12/28 07:28:36;;;;;;;11.20;8.73;;;2.40;86.70;;;;;;5055469;28;20032;-67
2020/12/28 07:31:04;;;;;;;14.03;8.67;;;2.40;86.80;;;;;;5055523;28;20532;-66
2020/12/28 07:33:31;;;;;;;11.63;8.37;;;2.40;87.20;;;;;;5054803;28;20096;-68
2020/12/28 07:36:09;;;;;;;11.57;7.67;;;2.40;87.20;;;;;;5054782;28;20032;-66
2020/12/28 07:38:36;;;;;;;9.20;6.47;;;2.50;87.10;;;;;;5055478;28;20501;-65
2020/12/28 07:41:03;;;;;;;9.77;5.40;;;2.50;86.80;;;;;;5055025;28;20210;-66
2020/12/28 07:43:29;;;;;;;7.63;5.23;;;2.50;86.90;;;;;;5053353;28;20036;-65
2020/12/28 07:46:03;;;;;;;8.23;5.07;;;2.60;87.60;;;;;;5051907;28;20025;-67
2020/12/28 07:48:32;;;;;;;9.03;5.60;;;2.60;87.70;;;;;;5053631;28;20029;-67
2020/12/28 07:51:00;;;;;;;7.20;4.50;;;2.60;87.60;;;;;;5053500;28;20025;-66
2020/12/28 07:53:35;;;;;;;7.77;4.67;;;2.60;87.70;;;;;;5054151;28;20025;-66
2020/12/28 07:56:05;;;;;;;7.13;4.87;;;2.60;87.30;;;;;;5053413;28;20382;-67
2020/12/28 07:58:46;;;;;;;6.53;4.33;;;2.70;87.60;;;;;;5053623;28;20429;-66
2020/12/28 08:01:48;;;;;;;7.93;4.53;;;2.70;87.80;;;;;;5054192;28;20025;-66
2020/12/28 08:04:22;;;;;;;8.30;5.20;;;2.70;87.70;;;;;;5054783;28;20033;-66
2020/12/28 08:06:49;;;;;;;8.63;5.27;;;2.70;87.70;;;;;;5054330;28;20029;-67
2020/12/28 08:09:20;;;;;;;6.63;4.77;;;2.80;87.50;;;;;;5054287;28;20056;-66
2020/12/28 08:12:00;;;;;;;6.33;4.10;;;2.80;87.50;;;;;;5052624;28;20048;-67
2020/12/28 08:14:26;;;;;;;7.90;4.57;;;2.80;88.00;;;;;;5052832;28;20408;-67
2020/12/28 08:16:52;;;;;;;6.10;3.83;;;2.90;88.10;;;;;;5052567;28;20033;-66
2020/12/28 08:19:28;;;;;;;7.43;3.83;;;2.90;88.20;;;;;;5052607;28;20029;-66
2020/12/28 08:21:54;;;;;;;5.77;4.27;;;2.90;88.20;;;;;;5053676;28;20079;-66
2020/12/28 08:24:21;;;;;;;6.00;4.27;;;2.90;88.60;;;;;;5052854;28;20021;-66
2020/12/28 08:26:49;;;;;;;9.20;6.37;;;2.90;88.50;;;;;;5052801;28;20048;-66
2020/12/28 08:29:15;;;;;;;8.63;5.87;;;2.90;88.40;;;;;;5052880;28;20025;-67
2020/12/28 08:31:42;;;;;;;8.87;5.73;;;2.90;87.90;;;;;;5052851;28;20025;-68
2020/12/28 08:34:09;;;;;;;8.57;6.23;;;2.90;86.80;;;;;;5052150;28;20382;-67
2020/12/28 08:36:39;;;;;;;11.83;6.57;;;2.90;87.10;;;;;;5052784;28;20025;-67
2020/12/28 08:39:12;;;;;;;10.67;7.50;;;;;;;;;;5052463;28;20037;-67
2020/12/28 08:41:38;;;;;;;;;;;3.00;87.30;;;;;;5054484;28;20112;-67
2020/12/28 08:44:04;;;;;;;6.30;4.47;;;3.00;86.70;;;;;;5053882;28;20365;-66
2020/12/28 08:46:29;;;;;;;5.90;3.50;;;3.00;87.10;;;;;;5053906;28;20063;-68
2020/12/28 08:48:55;;;;;;;4.03;2.80;;;3.00;88.20;;;;;;5053025;28;20652;-66
2020/12/28 08:51:21;;;;;;;3.73;2.50;;;3.00;87.80;;;;;;5053480;28;20056;-66
2020/12/28 08:53:50;;;;;;;6.47;3.60;;;3.10;87.50;;;;;;5053884;28;20040;-68
2020/12/28 08:56:17;;;;;;;5.87;3.70;;;3.10;87.70;;;;;;5053672;28;20021;-64
2020/12/28 08:58:43;;;;;;;6.37;3.60;;;3.20;87.70;;;;;;5050804;28;20036;-65
2020/12/28 09:01:09;;;;;;;4.60;2.97;;;3.20;87.90;;;;;;5051102;28;20056;-65
2020/12/28 09:03:36;;;;;;;5.13;2.90;;;3.20;87.90;;;;;;5051418;28;20544;-65
2020/12/28 09:06:03;;;;;;;5.60;2.80;;;3.30;87.80;;;;;;5051975;28;20025;-65
2020/12/28 09:08:29;;;;;;;3.20;1.97;;;3.30;87.80;;;;;;5053379;28;20029;-65
2020/12/28 09:10:55;;;;;;;3.40;2.20;;;3.40;88.80;;;;;;5053572;28;20025;-65
2020/12/28 09:13:21;;;;;;;3.10;2.07;;;3.40;88.70;;;;;;5053314;28;20033;-65
2020/12/28 09:15:47;;;;;;;5.43;2.13;;;3.50;88.90;;;;;;5053398;28;20535;-66
2020/12/28 09:18:12;;;;;;;3.80;2.13;;;3.50;88.10;;;;;;5052467;28;20152;-65
2020/12/28 09:20:38;;;;;;;3.63;1.97;;;3.60;89.30;;;;;;5052133;28;20024;-66
2020/12/28 09:23:04;;;;;;;4.27;1.63;;;3.60;88.90;;;;;;5052929;28;20041;-65
2020/12/28 09:25:29;;;;;;;1.90;1.37;;;3.70;88.90;;;;;;5053405;28;20025;-66
2020/12/28 09:27:55;;;;;;;2.97;1.60;;;3.80;89.30;;;;;;5052720;28;20557;-65
2020/12/28 09:30:21;;;;;;;3.70;1.70;;;3.80;89.10;;;;;;5053381;28;20035;-67
2020/12/28 09:32:46;;;;;;;3.90;1.80;;;3.80;89.40;;;;;;5053520;28;20520;-65
2020/12/28 09:35:12;;;;;;;2.83;1.80;;;3.90;89.50;;;;;;5053001;28;20025;-65
2020/12/28 09:37:38;;;;;;;3.53;1.90;;;4.00;89.90;;;;;;5052988;28;20035;-65
2020/12/28 09:40:05;;;;;;;4.77;1.97;;;4.00;90.00;;;;;;5052974;28;20105;-64
2020/12/28 09:42:31;;;;;;;2.97;1.80;;;4.10;90.20;;;;;;5050940;28;20099;-64
2020/12/28 09:44:57;;;;;;;5.67;2.13;;;4.10;90.00;;;;;;5050334;28;20108;-65
2020/12/28 09:47:22;;;;;;;3.03;1.90;;;4.20;90.20;;;;;;5052191;28;20032;-64
2020/12/28 09:49:48;;;;;;;4.90;2.20;;;4.20;90.10;;;;;;5052987;28;20071;-64
2020/12/28 09:52:14;;;;;;;3.77;2.00;;;4.30;90.20;;;;;;5053357;28;20032;-65
2020/12/28 09:54:40;;;;;;;3.13;1.87;;;4.30;90.10;;;;;;5052946;28;20028;-65
2020/12/28 09:57:06;;;;;;;5.80;2.10;;;4.40;90.10;;;;;;5052874;28;20029;-67
2020/12/28 09:59:35;;;;;;;3.87;1.83;;;4.40;90.20;;;;;;5039072;28;20117;-65
2020/12/28 10:02:01;;;;;;;7.63;1.93;;;4.40;90.10;;;;;;5049364;28;20355;-64
2020/12/28 10:04:27;;;;;;;4.40;1.80;;;4.50;90.20;;;;;;5051251;28;20036;-64
2020/12/28 10:06:52;;;;;;;4.73;2.20;;;4.50;90.30;;;;;;5052861;28;20025;-64
2020/12/28 10:09:18;;;;;;;5.43;1.87;;;4.60;90.40;;;;;;5052787;28;20021;-64
2020/12/28 10:11:44;;;;;;;4.50;1.87;;;4.60;90.30;;;;;;5052993;28;20381;-64
2020/12/28 10:14:09;;;;;;;5.37;1.90;;;4.70;90.60;;;;;;5053106;28;20355;-64
2020/12/28 10:16:35;;;;;;;5.03;1.80;;;4.80;90.70;;;;;;5052712;28;20151;-64
2020/12/28 10:19:01;;;;;;;6.37;2.27;;;4.80;90.40;;;;;;5052839;28;20040;-64
2020/12/28 10:21:27;;;;;;;3.80;2.20;;;4.90;90.50;;;;;;5052993;28;20017;-64
2020/12/28 10:23:54;;;;;;;4.90;2.40;;;4.90;90.60;;;;;;5050598;28;20037;-65
2020/12/28 10:26:21;;;;;;;13.00;3.60;;;5.00;90.50;;;;;;5049976;28;20017;-65
2020/12/28 10:28:48;;;;;;;8.37;3.50;;;5.00;90.60;;;;;;5049819;28;20373;-64
2020/12/28 10:31:15;;;;;;;10.93;2.90;;;5.00;90.30;;;;;;5052366;28;20018;-64
2020/12/28 10:33:44;;;;;;;6.60;2.70;;;5.10;90.50;;;;;;5052366;28;20100;-64
2020/12/28 10:36:22;;;;;;;7.50;2.87;;;5.10;90.50;;;;;;5052460;28;20013;-64
2020/12/28 10:38:49;;;;;;;5.77;2.73;;;5.20;90.80;;;;;;5052932;28;20040;-64
2020/12/28 10:41:15;;;;;;;11.80;3.67;;;5.20;90.70;;;;;;5056834;28;20029;-64
2020/12/28 10:43:41;;;;;;;7.33;3.00;;;5.30;90.80;;;;;;5056737;28;20426;-64
2020/12/28 10:46:09;;;;;;;9.57;3.23;;;5.40;91.00;;;;;;5054794;28;20016;-63
2020/12/28 10:48:36;;;;;;;7.93;2.90;;;5.40;90.80;;;;;;5056018;28;20056;-64
2020/12/28 10:51:03;;;;;;;8.97;2.93;;;5.40;90.60;;;;;;5056270;28;20104;-64
2020/12/28 10:53:28;;;;;;;7.50;2.83;;;5.40;90.60;;;;;;5056248;28;20021;-64
2020/12/28 10:55:54;;;;;;;16.70;3.70;;;5.50;91.00;;;;;;5056318;28;20535;-64
2020/12/28 10:58:20;;;;;;;6.20;3.10;;;5.50;91.00;;;;;;5056026;28;20064;-64
2020/12/28 11:00:50;;;;;;;8.60;2.97;;;5.50;90.80;;;;;;5036957;28;20139;-64
2020/12/28 11:03:16;;;;;;;5.77;3.23;;;5.60;90.70;;;;;;5036319;28;20029;-65
2020/12/28 11:05:41;;;;;;;8.03;2.50;;;5.70;90.80;;;;;;5036194;28;20025;-65
2020/12/28 11:08:07;;;;;;;7.10;2.17;;;5.70;90.90;;;;;;5036329;28;20064;-64
2020/12/28 11:10:33;;;;;;;6.17;2.40;;;5.80;90.80;;;;;;5036128;28;20025;-64
2020/12/28 11:12:58;;;;;;;7.63;2.60;;;5.80;90.60;;;;;;5035932;28;20482;-64
2020/12/28 11:15:24;;;;;;;6.20;2.23;;;5.90;90.70;;;;;;5035773;28;20013;-64
2020/12/28 11:17:50;;;;;;;4.90;2.17;;;5.90;90.50;;;;;;5035884;28;20406;-64
2020/12/28 11:20:16;;;;;;;9.17;2.30;;;5.90;90.30;;;;;;5035969;28;20509;-64
2020/12/28 11:22:42;;;;;;;6.80;2.27;;;5.90;90.60;;;;;;5035597;28;20022;-64
2020/12/28 11:25:08;;;;;;;7.90;2.57;;;6.00;90.60;;;;;;5035681;28;20068;-64
2020/12/28 11:27:33;;;;;;;5.57;2.20;;;6.00;90.70;;;;;;5036037;28;20056;-64
2020/12/28 11:29:59;;;;;;;6.50;2.33;;;6.00;90.60;;;;;;5035688;28;20474;-64
2020/12/28 11:32:25;;;;;;;10.80;2.30;;;6.10;90.70;;;;;;5035227;28;20425;-65
2020/12/28 11:34:50;;;;;;;9.63;2.53;;;6.10;90.50;;;;;;5033997;28;20041;-65
2020/12/28 11:37:16;;;;;;;8.63;2.50;;;6.20;90.60;;;;;;5035120;28;20078;-64
2020/12/28 11:39:42;;;;;;;7.50;2.60;;;6.20;90.70;;;;;;5035558;28;20104;-64
2020/12/28 11:42:09;;;;;;;8.57;2.63;;;6.20;90.60;;;;;;5035776;28;20021;-64
2020/12/28 11:44:36;;;;;;;8.33;2.10;;;6.20;90.70;;;;;;5035611;28;20041;-64
2020/12/28 11:47:02;;;;;;;10.17;2.30;;;6.30;90.90;;;;;;5035177;28;20159;-64
2020/12/28 11:49:28;;;;;;;7.40;2.23;;;6.30;91.00;;;;;;5035144;28;20021;-64
2020/12/28 11:51:54;;;;;;;8.17;2.10;;;6.40;90.80;;;;;;5034852;28;20039;-64
2020/12/28 11:54:21;;;;;;;12.60;2.17;;;6.40;90.60;;;;;;5035102;28;20025;-64
2020/12/28 11:56:47;;;;;;;8.07;2.00;;;6.50;90.90;;;;;;5035269;28;20034;-64
2020/12/28 11:59:12;;;;;;;7.63;1.80;;;6.50;90.80;;;;;;5035529;28;20039;-64
2020/12/28 12:01:38;;;;;;;8.97;2.00;;;6.50;90.80;;;;;;5035148;28;20026;-64
2020/12/28 12:04:04;;;;;;;13.03;2.30;;;6.50;90.80;;;;;;5035188;28;20056;-64
2020/12/28 12:06:30;;;;;;;8.17;2.00;;;6.60;91.20;;;;;;5035248;28;20382;-64
2020/12/28 12:09:12;;;;;;;7.90;1.70;;;6.60;90.90;;;;;;5034818;28;20027;-64
2020/12/28 12:11:42;;;;;;;6.70;1.80;;;6.70;90.80;;;;;;5035449;28;20029;-64
2020/12/28 12:14:08;;;;;;;7.00;1.90;;;6.70;90.90;;;;;;5035013;28;20096;-64
2020/12/28 12:16:34;;;;;;;6.47;2.10;;;6.70;90.80;;;;;;5034537;28;20030;-64
2020/12/28 12:19:00;;;;;;;5.30;1.53;;;6.70;90.80;;;;;;5035107;28;20466;-64
2020/12/28 12:21:25;;;;;;;8.97;1.73;;;6.70;90.90;;;;;;5034876;28;20025;-65
2020/12/28 12:23:51;;;;;;;4.27;1.20;;;6.80;91.30;;;;;;5034794;28;20535;-64
2020/12/28 12:26:21;;;;;;;4.77;2.03;;;6.80;91.50;;;;;;5031681;28;20026;-64
2020/12/28 12:28:47;;;;;;;9.10;2.23;;;6.80;91.30;;;;;;5032167;28;20026;-65
2020/12/28 12:31:14;;;;;;;9.43;1.70;;;6.80;91.40;;;;;;5032683;28;20151;-64
2020/12/28 12:33:40;;;;;;;7.33;1.30;;;6.90;91.90;;;;;;5034605;28;20032;-64
2020/12/28 12:36:06;;;;;;;8.00;2.37;;;6.90;91.80;;;;;;5034922;28;20029;-64
2020/12/28 12:38:32;;;;;;;7.40;1.57;;;7.00;91.70;;;;;;5034824;28;20367;-64
2020/12/28 12:40:58;;;;;;;5.20;1.40;;;7.00;91.60;;;;;;5034409;28;20053;-64
2020/12/28 12:43:23;;;;;;;6.37;1.90;;;7.10;91.80;;;;;;5034498;28;20047;-64
2020/12/28 12:45:49;;;;;;;5.17;1.33;;;7.10;91.70;;;;;;5034397;28;20033;-64
2020/12/28 12:48:14;;;;;;;5.63;1.13;;;7.30;92.50;;;;;;5034256;28;20032;-64
2020/12/28 12:50:41;;;;;;;9.13;2.03;;;7.20;91.90;;;;;;5034372;28;20104;-64